createdAt,value
2022-11-01T00:02:08.529Z,101505.91
2022-11-01T00:04:35.200Z,101502.41
2022-11-01T00:07:01.880Z,101492.72
2022-11-01T00:09:30.311Z,101498.94
2022-11-01T00:11:56.920Z,101493.69
2022-11-01T00:14:23.490Z,101499.03
2022-11-01T00:16:50.415Z,101499.94
2022-11-01T00:19:17.982Z,101502.63
2022-11-01T00:21:44.719Z,101504.44
2022-11-01T00:24:11.630Z,101501.81
2022-11-01T00:26:41.028Z,101509.75
2022-11-01T00:29:07.657Z,101503.66
2022-11-01T00:31:34.564Z,101503.69
2022-11-01T00:34:03.920Z,101505.53
2022-11-01T00:36:31.651Z,101512.63
2022-11-01T00:38:58.238Z,101512.72
2022-11-01T00:41:24.803Z,101510.19
2022-11-01T00:43:51.380Z,101524.34
2022-11-01T00:46:17.995Z,101507.69
2022-11-01T00:48:47.812Z,101520.06
2022-11-01T00:51:14.403Z,101521.84
2022-11-01T00:53:41.057Z,101513.91
2022-11-01T00:56:08.184Z,101513.94
2022-11-01T00:58:37.252Z,101508.69
2022-11-01T01:01:04.273Z,101513.13
2022-11-01T01:03:30.946Z,101513.16
2022-11-01T01:05:57.970Z,101507.94
2022-11-01T01:08:28.528Z,101510.59
2022-11-01T01:10:55.488Z,101515.91
2022-11-01T01:13:22.291Z,101503.56
2022-11-01T01:15:49.004Z,101510.63
2022-11-01T01:18:16.167Z,101512.41
2022-11-01T01:20:43.050Z,101501.88
2022-11-01T01:23:12.528Z,101501.88
2022-11-01T01:25:41.214Z,101494.88
2022-11-01T01:28:08.408Z,101501.03
2022-11-01T01:30:35.290Z,101503.66
2022-11-01T01:33:04.406Z,101498.38
2022-11-01T01:35:30.943Z,101506.31
2022-11-01T01:37:57.569Z,101498.34
2022-11-01T01:40:24.244Z,101508.00
2022-11-01T01:42:54.682Z,101508.00
2022-11-01T01:45:29.237Z,101506.22
2022-11-01T01:48:02.492Z,101503.56
2022-11-01T01:50:38.806Z,101503.53
2022-11-01T01:53:09.940Z,101508.78
2022-11-01T01:55:45.616Z,101499.94
2022-11-01T01:58:17.918Z,101502.50
2022-11-01T02:00:45.414Z,101503.38
2022-11-01T02:03:13.099Z,101501.56
2022-11-01T02:05:48.731Z,101501.50
2022-11-01T02:08:16.027Z,101501.47
2022-11-01T02:10:43.056Z,101502.28
2022-11-01T02:13:14.660Z,101506.63
2022-11-01T02:16:10.592Z,101511.03
2022-11-01T02:19:05.141Z,101512.69
2022-11-01T02:21:49.825Z,101510.91
2022-11-01T02:24:25.485Z,101504.69
2022-11-01T02:27:02.999Z,101505.50
2022-11-01T02:29:32.573Z,101500.13
2022-11-01T02:32:14.127Z,101502.72
2022-11-01T02:34:57.329Z,101504.47
2022-11-01T02:37:35.145Z,101501.81
2022-11-01T02:40:09.944Z,101489.47
2022-11-01T02:42:48.631Z,101492.06
2022-11-01T02:45:32.092Z,101489.41
2022-11-01T02:48:00.516Z,101492.88
2022-11-01T02:50:33.419Z,101489.31
2022-11-01T02:53:00.828Z,101501.63
2022-11-01T02:55:30.826Z,101498.06
2022-11-01T02:58:01.860Z,101488.34
2022-11-01T03:00:32.488Z,101497.13
2022-11-01T03:03:14.303Z,101489.16
2022-11-01T03:06:06.097Z,101490.91
2022-11-01T03:08:38.724Z,101491.78
2022-11-01T03:11:08.125Z,101493.53
2022-11-01T03:13:57.526Z,101482.06
2022-11-01T03:16:45.130Z,101482.97
2022-11-01T03:19:29.213Z,101478.50
2022-11-01T03:21:58.853Z,101478.50
2022-11-01T03:24:32.166Z,101473.19
2022-11-01T03:27:21.331Z,101471.38
2022-11-01T03:29:57.010Z,101474.88
2022-11-01T03:32:31.948Z,101474.00
2022-11-01T03:35:01.994Z,101480.13
2022-11-01T03:37:31.056Z,101477.47
2022-11-01T03:40:02.952Z,101480.06
2022-11-01T03:42:31.046Z,101487.09
2022-11-01T03:45:03.207Z,101474.75
2022-11-01T03:47:32.716Z,101480.91
2022-11-01T03:50:23.065Z,101483.53
2022-11-01T03:52:52.405Z,101479.09
2022-11-01T03:55:20.268Z,101477.38
2022-11-01T03:57:55.084Z,101474.66
2022-11-01T04:00:33.947Z,101478.19
2022-11-01T04:03:01.723Z,101472.94
2022-11-01T04:05:30.507Z,101475.53
2022-11-01T04:07:57.310Z,101482.53
2022-11-01T04:10:25.363Z,101479.91
2022-11-01T04:12:53.259Z,101478.13
2022-11-01T04:15:40.526Z,101474.59
2022-11-01T04:18:42.533Z,101472.81
2022-11-01T04:21:10.608Z,101471.91
2022-11-01T04:23:37.847Z,101471.91
2022-11-01T04:26:05.656Z,101470.13
2022-11-01T04:28:32.278Z,101474.56
2022-11-01T04:30:59.050Z,101471.91
2022-11-01T04:33:28.610Z,101471.03
2022-11-01T04:35:55.140Z,101470.13
2022-11-01T04:38:21.818Z,101463.09
2022-11-01T04:40:48.445Z,101470.13
2022-11-01T04:43:15.884Z,101464.84
2022-11-01T04:45:53.483Z,101464.84
2022-11-01T04:48:23.860Z,101467.47
2022-11-01T04:50:50.468Z,101471.03
2022-11-01T04:53:17.093Z,101463.09
2022-11-01T04:55:46.408Z,101462.19
2022-11-01T04:58:14.659Z,101462.19
2022-11-01T05:00:43.911Z,101461.31
2022-11-01T05:03:11.906Z,101455.22
2022-11-01T05:05:39.217Z,101459.53
2022-11-01T05:08:09.440Z,101463.09
2022-11-01T05:10:37.960Z,101460.44
2022-11-01T05:13:05.754Z,101457.81
2022-11-01T05:15:32.672Z,101466.59
2022-11-01T05:17:59.495Z,101470.13
2022-11-01T05:20:26.180Z,101475.38
2022-11-01T05:22:52.772Z,101469.22
2022-11-01T05:25:19.319Z,101465.66
2022-11-01T05:27:45.979Z,101462.13
2022-11-01T05:30:13.183Z,101466.50
2022-11-01T05:32:39.792Z,101474.44
2022-11-01T05:35:08.531Z,101470.03
2022-11-01T05:37:35.951Z,101467.38
2022-11-01T05:40:05.510Z,101462.94
2022-11-01T05:42:32.524Z,101461.19
2022-11-01T05:45:00.645Z,101468.22
2022-11-01T05:47:27.258Z,101468.22
2022-11-01T05:49:55.708Z,101468.22
2022-11-01T05:52:34.341Z,101475.25
2022-11-01T05:55:00.952Z,101462.88
2022-11-01T05:57:32.341Z,101467.25
2022-11-01T06:00:00.337Z,101466.34
2022-11-01T06:02:31.579Z,101470.78
2022-11-01T06:05:02.616Z,101477.81
2022-11-01T06:07:29.771Z,101473.41
2022-11-01T06:09:59.486Z,101479.56
2022-11-01T06:12:26.164Z,101471.59
2022-11-01T06:14:57.911Z,101473.31
2022-11-01T06:17:24.962Z,101479.53
2022-11-01T06:19:51.517Z,101472.44
2022-11-01T06:22:18.864Z,101475.97
2022-11-01T06:24:45.474Z,101478.56
2022-11-01T06:27:12.855Z,101470.63
2022-11-01T06:29:39.764Z,101475.91
2022-11-01T06:32:09.343Z,101475.91
2022-11-01T06:34:36.929Z,101482.06
2022-11-01T06:37:06.065Z,101476.72
2022-11-01T06:39:32.676Z,101477.56
2022-11-01T06:41:59.239Z,101478.44
2022-11-01T06:44:25.860Z,101481.03
2022-11-01T06:46:54.916Z,101473.97
2022-11-01T06:49:22.001Z,101467.78
2022-11-01T06:51:50.251Z,101469.53
2022-11-01T06:54:19.195Z,101468.66
2022-11-01T06:56:52.231Z,101468.59
2022-11-01T06:59:18.788Z,101479.13
2022-11-01T07:01:47.645Z,101467.66
2022-11-01T07:04:14.298Z,101457.06
2022-11-01T07:06:41.139Z,101467.59
2022-11-01T07:09:07.709Z,101473.72
2022-11-01T07:11:34.386Z,101468.38
2022-11-01T07:14:00.959Z,101468.34
2022-11-01T07:16:29.877Z,101470.03
2022-11-01T07:18:56.488Z,101469.16
2022-11-01T07:21:26.309Z,101465.59
2022-11-01T07:23:54.171Z,101462.94
2022-11-01T07:26:21.244Z,101462.94
2022-11-01T07:28:47.995Z,101458.44
2022-11-01T07:31:14.724Z,101461.97
2022-11-01T07:33:41.299Z,101466.34
2022-11-01T07:36:08.404Z,101471.59
2022-11-01T07:38:34.962Z,101461.91
2022-11-01T07:41:04.258Z,101468.88
2022-11-01T07:43:31.773Z,101465.34
2022-11-01T07:46:00.633Z,101461.78
2022-11-01T07:48:29.155Z,101460.03
2022-11-01T07:50:57.286Z,101461.72
2022-11-01T07:53:24.541Z,101463.44
2022-11-01T07:55:51.508Z,101473.13
2022-11-01T07:58:18.199Z,101465.97
2022-11-01T08:00:46.903Z,101467.75
2022-11-01T08:03:16.367Z,101469.47
2022-11-01T08:05:44.007Z,101467.63
2022-11-01T08:08:11.014Z,101470.22
2022-11-01T08:10:38.658Z,101466.66
2022-11-01T08:13:20.160Z,101467.44
2022-11-01T08:15:48.164Z,101467.38
2022-11-01T08:18:15.317Z,101469.09
2022-11-01T08:20:42.503Z,101469.94
2022-11-01T08:23:09.404Z,101466.38
2022-11-01T08:25:36.507Z,101465.47
2022-11-01T08:28:12.498Z,101460.16
2022-11-01T08:30:40.739Z,101461.00
2022-11-01T08:33:07.678Z,101462.75
2022-11-01T08:35:34.826Z,101462.72
2022-11-01T08:38:03.206Z,101467.06
2022-11-01T08:40:30.984Z,101458.22
2022-11-01T08:42:57.924Z,101459.97
2022-11-01T08:45:25.003Z,101459.91
2022-11-01T08:47:58.356Z,101465.19
2022-11-01T08:50:24.979Z,101459.84
2022-11-01T08:52:51.578Z,101460.69
2022-11-01T08:55:18.286Z,101453.53
2022-11-01T08:57:44.825Z,101459.69
2022-11-01T09:00:12.205Z,101459.66
2022-11-01T09:02:38.869Z,101457.00
2022-11-01T09:05:07.004Z,101461.41
2022-11-01T09:07:36.934Z,101449.03
2022-11-01T09:10:04.569Z,101456.91
2022-11-01T09:12:31.363Z,101457.81
2022-11-01T09:14:58.020Z,101456.88
2022-11-01T09:17:25.992Z,101460.38
2022-11-01T09:19:52.597Z,101458.53
2022-11-01T09:22:19.224Z,101453.34
2022-11-01T09:24:45.820Z,101461.19
2022-11-01T09:27:15.251Z,101450.69
2022-11-01T09:29:43.359Z,101455.88
2022-11-01T09:32:12.105Z,101455.88
2022-11-01T09:34:38.688Z,101453.25
2022-11-01T09:37:05.404Z,101449.69
2022-11-01T09:39:32.418Z,101454.94
2022-11-01T09:42:11.952Z,101451.34
2022-11-01T09:44:47.695Z,101456.59
2022-11-01T09:47:21.154Z,101445.97
2022-11-01T09:49:59.006Z,101447.63
2022-11-01T09:52:26.033Z,101449.34
2022-11-01T09:54:53.290Z,101449.31
2022-11-01T09:57:36.137Z,101440.44
2022-11-01T10:00:19.422Z,101443.09
2022-11-01T10:03:17.741Z,101440.41
2022-11-01T10:06:02.888Z,101447.41
2022-11-01T10:09:00.657Z,101446.50
2022-11-01T10:11:52.170Z,101434.97
2022-11-01T10:14:45.147Z,101431.41
2022-11-01T10:17:14.737Z,101431.41
2022-11-01T10:19:50.034Z,101428.84
2022-11-01T10:22:30.016Z,101426.19
2022-11-01T10:25:04.830Z,101430.53
2022-11-01T10:27:47.090Z,101433.16
2022-11-01T10:30:16.341Z,101441.06
2022-11-01T10:32:42.872Z,101442.81
2022-11-01T10:35:27.675Z,101437.47
2022-11-01T10:38:23.582Z,101433.03
2022-11-01T10:41:14.978Z,101426.03
2022-11-01T10:43:46.172Z,101427.84
2022-11-01T10:46:19.491Z,101424.34
2022-11-01T10:48:50.758Z,101420.88
2022-11-01T10:51:25.309Z,101415.56
2022-11-01T10:53:58.694Z,101428.00
2022-11-01T10:56:31.151Z,101425.31
2022-11-01T10:59:04.591Z,101427.06
2022-11-01T11:01:42.567Z,101417.25
2022-11-01T11:04:14.417Z,101422.53
2022-11-01T11:06:42.432Z,101418.09
2022-11-01T11:09:38.518Z,101420.72
2022-11-01T11:12:12.397Z,101415.44
2022-11-01T11:14:41.261Z,101423.38
2022-11-01T11:17:20.392Z,101419.81
2022-11-01T11:19:49.377Z,101416.31
2022-11-01T11:22:16.093Z,101416.31
2022-11-01T11:24:44.499Z,101416.28
2022-11-01T11:27:18.874Z,101410.13
2022-11-01T11:29:49.403Z,101406.53
2022-11-01T11:32:22.495Z,101419.75
2022-11-01T11:35:20.865Z,101410.94
2022-11-01T11:37:56.702Z,101403.88
2022-11-01T11:40:26.807Z,101405.69
2022-11-01T11:43:21.431Z,101397.78
2022-11-01T11:46:12.210Z,101403.03
2022-11-01T11:48:53.161Z,101403.91
2022-11-01T11:51:21.592Z,101399.38
2022-11-01T11:54:11.479Z,101398.50
2022-11-01T11:56:38.252Z,101390.53
2022-11-01T11:59:29.286Z,101387.81
2022-11-01T12:02:04.636Z,101390.53
2022-11-01T12:04:40.291Z,101382.59
2022-11-01T12:07:11.313Z,101386.22
2022-11-01T12:09:44.842Z,101380.94
2022-11-01T12:12:24.896Z,101376.59
2022-11-01T12:14:51.880Z,101372.25
2022-11-01T12:17:29.172Z,101376.66
2022-11-01T12:20:01.096Z,101372.22
2022-11-01T12:22:34.839Z,101375.66
2022-11-01T12:25:06.579Z,101370.19
2022-11-01T12:27:36.047Z,101371.91
2022-11-01T12:30:12.540Z,101367.47
2022-11-01T12:32:58.244Z,101361.19
2022-11-01T12:35:35.219Z,101365.56
2022-11-01T12:38:32.353Z,101361.06
2022-11-01T12:41:22.818Z,101358.41
2022-11-01T12:43:53.280Z,101361.97
2022-11-01T12:46:41.112Z,101359.25
2022-11-01T12:49:26.088Z,101360.13
2022-11-01T12:51:57.357Z,101350.47
2022-11-01T12:54:30.436Z,101361.97
2022-11-01T12:56:57.056Z,101358.53
2022-11-01T12:59:34.269Z,101347.06
2022-11-01T13:02:29.649Z,101340.84
2022-11-01T13:05:20.483Z,101340.75
2022-11-01T13:08:10.575Z,101331.94
2022-11-01T13:10:44.015Z,101328.34
2022-11-01T13:13:52.032Z,101321.19
2022-11-01T13:16:26.969Z,101322.94
2022-11-01T13:19:16.743Z,101319.28
2022-11-01T13:21:53.292Z,101317.56
2022-11-01T13:24:41.411Z,101321.06
2022-11-01T13:27:31.232Z,101312.13
2022-11-01T13:30:19.873Z,101310.38
2022-11-01T13:33:22.569Z,101300.63
2022-11-01T13:36:12.329Z,101310.31
2022-11-01T13:39:18.030Z,101310.31
2022-11-01T13:41:54.726Z,101310.41
2022-11-01T13:44:25.449Z,101313.03
2022-11-01T13:47:21.583Z,101319.38
2022-11-01T13:50:28.716Z,101320.31
2022-11-01T13:53:02.537Z,101313.31
2022-11-01T13:55:47.294Z,101315.97
2022-11-01T13:58:21.998Z,101305.34
2022-11-01T14:00:54.423Z,101307.09
2022-11-01T14:03:29.640Z,101306.19
2022-11-01T14:06:08.403Z,101307.09
2022-11-01T14:08:42.527Z,101308.00
2022-11-01T14:11:33.043Z,101303.59
2022-11-01T14:13:59.855Z,101303.63
2022-11-01T14:16:28.193Z,101306.25
2022-11-01T14:19:04.016Z,101313.31
2022-11-01T14:21:40.599Z,101306.31
2022-11-01T14:24:17.912Z,101309.88
2022-11-01T14:26:47.966Z,101307.28
2022-11-01T14:29:15.267Z,101311.72
2022-11-01T14:31:44.986Z,101312.59
2022-11-01T14:34:31.804Z,101307.28
2022-11-01T14:37:05.604Z,101317.03
2022-11-01T14:39:44.572Z,101304.69
2022-11-01T14:42:16.107Z,101307.34
2022-11-01T14:44:50.454Z,101302.97
2022-11-01T14:47:35.261Z,101295.09
2022-11-01T14:50:14.092Z,101296.81
2022-11-01T14:52:49.358Z,101297.75
2022-11-01T14:55:25.318Z,101296.91
2022-11-01T14:58:07.153Z,101284.56
2022-11-01T15:00:33.828Z,101294.31
2022-11-01T15:03:01.624Z,101293.47
2022-11-01T15:05:28.408Z,101289.97
2022-11-01T15:07:57.177Z,101293.56
2022-11-01T15:10:23.968Z,101293.56
2022-11-01T15:12:54.625Z,101288.31
2022-11-01T15:15:23.978Z,101296.28
2022-11-01T15:17:56.971Z,101275.97
2022-11-01T15:20:26.623Z,101281.28
2022-11-01T15:22:55.436Z,101277.78
2022-11-01T15:25:26.611Z,101279.50
2022-11-01T15:27:55.532Z,101265.44
2022-11-01T15:30:33.830Z,101264.59
2022-11-01T15:33:20.201Z,101259.28
2022-11-01T15:36:02.938Z,101264.59
2022-11-01T15:38:33.501Z,101261.09
2022-11-01T15:41:19.671Z,101261.13
2022-11-01T15:43:52.173Z,101257.66
2022-11-01T15:46:18.995Z,101262.97
2022-11-01T15:48:46.456Z,101261.25
2022-11-01T15:51:22.933Z,101263.97
2022-11-01T15:54:04.329Z,101264.84
2022-11-01T15:56:43.925Z,101267.50
2022-11-01T15:59:24.451Z,101260.47
2022-11-01T16:01:51.440Z,101265.84
2022-11-01T16:04:20.042Z,101272.03
2022-11-01T16:06:53.231Z,101264.13
2022-11-01T16:09:30.447Z,101266.72
2022-11-01T16:12:04.164Z,101272.94
2022-11-01T16:14:38.223Z,101276.44
2022-11-01T16:17:08.191Z,101269.34
2022-11-01T16:19:48.435Z,101256.09
2022-11-01T16:22:34.827Z,101260.47
2022-11-01T16:25:05.016Z,101259.56
2022-11-01T16:27:31.572Z,101253.44
2022-11-01T16:29:58.248Z,101256.91
2022-11-01T16:32:30.855Z,101251.59
2022-11-01T16:34:58.839Z,101250.69
2022-11-01T16:37:27.928Z,101250.72
2022-11-01T16:39:54.733Z,101249.88
2022-11-01T16:42:23.030Z,101247.22
2022-11-01T16:44:54.576Z,101251.69
2022-11-01T16:47:21.427Z,101246.34
2022-11-01T16:49:54.128Z,101238.47
2022-11-01T16:52:20.817Z,101243.84
2022-11-01T16:54:53.558Z,101236.75
2022-11-01T16:57:30.002Z,101242.03
2022-11-01T16:59:57.366Z,101232.31
2022-11-01T17:02:29.897Z,101231.53
2022-11-01T17:05:21.159Z,101242.13
2022-11-01T17:07:48.015Z,101236.81
2022-11-01T17:10:25.864Z,101247.44
2022-11-01T17:12:53.933Z,101252.78
2022-11-01T17:15:20.627Z,101250.16
2022-11-01T17:17:49.013Z,101243.13
2022-11-01T17:20:22.882Z,101236.97
2022-11-01T17:22:51.837Z,101240.53
2022-11-01T17:25:22.008Z,101237.91
2022-11-01T17:27:52.096Z,101239.59
2022-11-01T17:30:19.999Z,101226.34
2022-11-01T17:32:46.911Z,101245.78
2022-11-01T17:35:14.415Z,101239.59
2022-11-01T17:37:42.129Z,101236.09
2022-11-01T17:40:20.631Z,101235.25
2022-11-01T17:42:47.536Z,101229.09
2022-11-01T17:45:14.403Z,101231.75
2022-11-01T17:47:40.974Z,101227.38
2022-11-01T17:50:12.652Z,101230.94
2022-11-01T17:52:39.484Z,101230.94
2022-11-01T17:55:07.818Z,101218.63
2022-11-01T17:57:34.579Z,101217.78
2022-11-01T18:00:01.713Z,101224.81
2022-11-01T18:02:28.407Z,101221.34
2022-11-01T18:04:55.110Z,101219.56
2022-11-01T18:07:21.676Z,101215.22
2022-11-01T18:09:48.260Z,101224.88
2022-11-01T18:12:19.204Z,101209.91
2022-11-01T18:15:07.841Z,101211.75
2022-11-01T18:18:03.645Z,101210.91
2022-11-01T18:20:57.100Z,101203.91
2022-11-01T18:23:27.161Z,101208.34
2022-11-01T18:25:53.740Z,101198.66
2022-11-01T18:28:30.189Z,101183.69
2022-11-01T18:31:01.341Z,101182.75
2022-11-01T18:33:51.127Z,101185.44
2022-11-01T18:36:29.832Z,101180.19
2022-11-01T18:39:18.166Z,101184.56
2022-11-01T18:41:49.861Z,101191.72
2022-11-01T18:44:16.974Z,101187.34
2022-11-01T18:46:55.135Z,101189.13
2022-11-01T18:49:25.744Z,101191.81
2022-11-01T18:51:53.663Z,101190.13
2022-11-01T18:54:26.153Z,101194.53
2022-11-01T18:57:17.197Z,101203.47
2022-11-01T18:59:49.396Z,101213.19
2022-11-01T19:02:28.600Z,101214.97
2022-11-01T19:05:17.228Z,101222.91
2022-11-01T19:08:20.259Z,101213.28
2022-11-01T19:10:38.269Z,101215.09
2022-11-01T19:13:15.024Z,101204.50
2022-11-01T19:15:41.636Z,101205.34
2022-11-01T19:18:19.995Z,101187.66
2022-11-01T19:20:48.476Z,101186.72
2022-11-01T19:23:26.391Z,101185.81
2022-11-01T19:25:53.778Z,101194.69
2022-11-01T19:28:30.644Z,101202.63
2022-11-01T19:31:06.490Z,101202.59
2022-11-01T19:33:38.732Z,101201.72
2022-11-01T19:36:14.056Z,101195.47
2022-11-01T19:38:44.945Z,101210.50
2022-11-01T19:41:15.595Z,101204.28
2022-11-01T19:43:42.361Z,101206.94
2022-11-01T19:46:15.665Z,101205.13
2022-11-01T19:48:42.845Z,101206.94
2022-11-01T19:51:20.466Z,101203.47
2022-11-01T19:53:47.208Z,101206.13
2022-11-01T19:56:19.573Z,101206.13
2022-11-01T19:58:50.488Z,101204.34
2022-11-01T20:01:17.179Z,101202.59
2022-11-01T20:03:47.209Z,101208.78
2022-11-01T20:06:20.014Z,101203.50
2022-11-01T20:08:50.237Z,101203.47
2022-11-01T20:11:17.179Z,101200.75
2022-11-01T20:13:43.754Z,101201.63
2022-11-01T20:16:10.353Z,101192.78
2022-11-01T20:18:36.949Z,101197.16
2022-11-01T20:21:06.265Z,101182.19
2022-11-01T20:23:33.902Z,101183.06
2022-11-01T20:26:01.967Z,101177.69
2022-11-01T20:28:28.616Z,101172.44
2022-11-01T20:30:56.161Z,101176.84
2022-11-01T20:33:24.403Z,101170.69
2022-11-01T20:35:52.516Z,101174.19
2022-11-01T20:40:47.136Z,101162.66
2022-11-01T20:43:13.724Z,101168.84
2022-11-01T20:45:41.988Z,101162.63
2022-11-01T20:48:08.669Z,101162.63
2022-11-01T20:50:35.759Z,101161.72
2022-11-01T20:53:02.700Z,101155.50
2022-11-01T20:55:29.407Z,101142.34
2022-11-01T20:57:56.293Z,101139.69
2022-11-01T21:00:22.919Z,101135.28
2022-11-01T21:02:51.197Z,101130.78
2022-11-01T21:05:22.515Z,101130.78
2022-11-01T21:07:49.706Z,101125.38
2022-11-01T21:10:32.195Z,101120.06
2022-11-01T21:13:00.748Z,101116.50
2022-11-01T21:15:46.149Z,101115.56
2022-11-01T21:18:12.620Z,101112.91
2022-11-01T21:20:48.487Z,101106.75
2022-11-01T21:23:25.872Z,101112.06
2022-11-01T21:25:59.854Z,101108.53
2022-11-01T21:28:37.399Z,101090.81
2022-11-01T21:31:15.056Z,101097.88
2022-11-01T21:33:49.059Z,101091.69
2022-11-01T21:36:31.260Z,101089.03
2022-11-01T21:39:06.494Z,101075.78
2022-11-01T21:41:42.656Z,101078.44
2022-11-01T21:44:12.285Z,101080.16
2022-11-01T21:46:53.044Z,101081.88
2022-11-01T21:49:25.883Z,101076.56
2022-11-01T21:51:56.083Z,101080.06
2022-11-01T21:54:23.047Z,101080.94
2022-11-01T21:56:51.685Z,101082.66
2022-11-01T21:59:18.439Z,101072.06
2022-11-01T22:01:46.796Z,101071.16
2022-11-01T22:04:16.643Z,101073.75
2022-11-01T22:06:44.168Z,101064.00
2022-11-01T22:09:11.300Z,101062.22
2022-11-01T22:11:38.103Z,101060.44
2022-11-01T22:14:07.818Z,101043.91
2022-11-01T22:16:37.906Z,101065.75
2022-11-01T22:19:05.732Z,101057.78
2022-11-01T22:21:33.069Z,101058.69
2022-11-01T22:24:00.603Z,101058.69
2022-11-01T22:26:30.259Z,101061.28
2022-11-01T22:28:57.191Z,101050.66
2022-11-01T22:31:25.090Z,101048.88
2022-11-01T22:33:59.187Z,101057.69
2022-11-01T22:36:28.532Z,101055.03
2022-11-01T22:38:57.541Z,101054.19
2022-11-01T22:41:31.880Z,101056.81
2022-11-01T22:44:05.728Z,101060.31
2022-11-01T22:47:07.522Z,101057.59
2022-11-01T22:49:37.453Z,101054.16
2022-11-01T22:52:26.928Z,101052.31
2022-11-01T22:55:10.274Z,101051.41
2022-11-01T22:57:50.018Z,101043.47
2022-11-01T23:00:39.972Z,101051.34
2022-11-01T23:03:18.942Z,101048.63
2022-11-01T23:05:47.098Z,101051.28
2022-11-01T23:08:35.435Z,101042.44
2022-11-01T23:11:04.960Z,101050.41
2022-11-01T23:13:54.797Z,101037.13
2022-11-01T23:16:25.132Z,101040.59
2022-11-01T23:18:54.365Z,101045.91
2022-11-01T23:21:25.178Z,101039.66
2022-11-01T23:23:52.210Z,101038.72
2022-11-01T23:26:20.261Z,101030.75
2022-11-01T23:28:50.063Z,101034.19
2022-11-01T23:31:16.970Z,101029.72
2022-11-01T23:33:48.812Z,101037.66
2022-11-01T23:36:39.879Z,101034.94
2022-11-01T23:39:12.262Z,101029.59
2022-11-01T23:41:43.274Z,101041.03
2022-11-01T23:44:47.033Z,101034.78
2022-11-01T23:47:36.760Z,101033.00
2022-11-01T23:50:21.734Z,101031.25
2022-11-01T23:52:56.835Z,101033.91
2022-11-01T23:55:28.111Z,101027.66
2022-11-01T23:57:59.961Z,101031.16
